sensor_id;sensor_type;location;lat;lon;timestamp;temperature;humidity
68257;DHT22;55069;51.568;4.656;2024-02-04T00:00:01;10.30;99.81
68257;DHT22;55069;51.568;4.656;2024-02-04T00:02:26;10.31;99.65
68257;DHT22;55069;51.568;4.656;2024-02-04T00:04:52;10.37;99.48
68257;DHT22;55069;51.568;4.656;2024-02-04T00:07:18;10.37;99.51
68257;DHT22;55069;51.568;4.656;2024-02-04T00:09:43;10.38;99.43
68257;DHT22;55069;51.568;4.656;2024-02-04T00:12:10;10.38;99.19
68257;DHT22;55069;51.568;4.656;2024-02-04T00:14:35;10.40;99.29
68257;DHT22;55069;51.568;4.656;2024-02-04T00:17:01;10.44;99.12
68257;DHT22;55069;51.568;4.656;2024-02-04T00:19:26;10.41;99.19
68257;DHT22;55069;51.568;4.656;2024-02-04T00:21:52;10.41;99.16
68257;DHT22;55069;51.568;4.656;2024-02-04T00:24:18;10.40;99.25
68257;DHT22;55069;51.568;4.656;2024-02-04T00:26:46;10.40;99.24
68257;DHT22;55069;51.568;4.656;2024-02-04T00:29:12;10.37;99.40
68257;DHT22;55069;51.568;4.656;2024-02-04T00:31:38;10.35;99.50
68257;DHT22;55069;51.568;4.656;2024-02-04T00:34:03;10.34;99.53
68257;DHT22;55069;51.568;4.656;2024-02-04T00:36:30;10.34;99.58
68257;DHT22;55069;51.568;4.656;2024-02-04T00:38:56;10.31;99.65
68257;DHT22;55069;51.568;4.656;2024-02-04T00:41:21;10.32;99.77
68257;DHT22;55069;51.568;4.656;2024-02-04T00:43:47;10.32;99.76
68257;DHT22;55069;51.568;4.656;2024-02-04T00:46:13;10.32;99.57
68257;DHT22;55069;51.568;4.656;2024-02-04T00:48:38;10.32;99.44
68257;DHT22;55069;51.568;4.656;2024-02-04T00:51:06;10.32;99.47
68257;DHT22;55069;51.568;4.656;2024-02-04T00:53:32;10.30;99.46
68257;DHT22;55069;51.568;4.656;2024-02-04T00:56:02;10.27;99.51
68257;DHT22;55069;51.568;4.656;2024-02-04T00:58:28;10.28;99.64
68257;DHT22;55069;51.568;4.656;2024-02-04T01:00:53;10.24;99.63
68257;DHT22;55069;51.568;4.656;2024-02-04T01:03:19;10.24;99.60
68257;DHT22;55069;51.568;4.656;2024-02-04T01:05:44;10.22;99.42
68257;DHT22;55069;51.568;4.656;2024-02-04T01:08:10;10.21;99.42
68257;DHT22;55069;51.568;4.656;2024-02-04T01:10:36;10.24;99.05
68257;DHT22;55069;51.568;4.656;2024-02-04T01:13:02;10.24;99.04
68257;DHT22;55069;51.568;4.656;2024-02-04T01:15:28;10.27;98.66
68257;DHT22;55069;51.568;4.656;2024-02-04T01:17:53;10.22;98.83
68257;DHT22;55069;51.568;4.656;2024-02-04T01:20:19;10.22;98.77
68257;DHT22;55069;51.568;4.656;2024-02-04T01:22:45;10.25;98.43
68257;DHT22;55069;51.568;4.656;2024-02-04T01:25:10;10.28;98.12
68257;DHT22;55069;51.568;4.656;2024-02-04T01:27:35;10.22;98.64
68257;DHT22;55069;51.568;4.656;2024-02-04T01:30:01;10.22;98.48
68257;DHT22;55069;51.568;4.656;2024-02-04T01:32:27;10.20;98.64
68257;DHT22;55069;51.568;4.656;2024-02-04T01:34:52;10.21;98.49
68257;DHT22;55069;51.568;4.656;2024-02-04T01:37:18;10.24;98.24
68257;DHT22;55069;51.568;4.656;2024-02-04T01:39:43;10.24;98.26
68257;DHT22;55069;51.568;4.656;2024-02-04T01:42:09;10.20;98.36
68257;DHT22;55069;51.568;4.656;2024-02-04T01:44:35;10.14;98.40
68257;DHT22;55069;51.568;4.656;2024-02-04T01:47:01;10.13;98.48
68257;DHT22;55069;51.568;4.656;2024-02-04T01:49:27;10.05;98.53
68257;DHT22;55069;51.568;4.656;2024-02-04T01:51:53;10.03;98.50
68257;DHT22;55069;51.568;4.656;2024-02-04T01:54:20;10.01;98.43
68257;DHT22;55069;51.568;4.656;2024-02-04T01:56:49;10.01;98.25
68257;DHT22;55069;51.568;4.656;2024-02-04T01:59:15;10.01;98.32
68257;DHT22;55069;51.568;4.656;2024-02-04T02:01:43;9.98;98.32
68257;DHT22;55069;51.568;4.656;2024-02-04T02:04:08;9.93;98.53
68257;DHT22;55069;51.568;4.656;2024-02-04T02:06:34;9.84;98.61
68257;DHT22;55069;51.568;4.656;2024-02-04T02:09:07;9.79;98.64
68257;DHT22;55069;51.568;4.656;2024-02-04T02:12:05;9.67;98.83
68257;DHT22;55069;51.568;4.656;2024-02-04T02:14:36;9.69;99.09
68257;DHT22;55069;51.568;4.656;2024-02-04T02:17:06;9.72;98.97
68257;DHT22;55069;51.568;4.656;2024-02-04T02:19:41;9.75;98.88
68257;DHT22;55069;51.568;4.656;2024-02-04T02:22:29;9.79;98.68
68257;DHT22;55069;51.568;4.656;2024-02-04T02:24:57;9.82;98.58
68257;DHT22;55069;51.568;4.656;2024-02-04T02:27:24;9.80;98.62
68257;DHT22;55069;51.568;4.656;2024-02-04T02:29:50;9.82;98.62
68257;DHT22;55069;51.568;4.656;2024-02-04T02:32:15;9.82;98.50
68257;DHT22;55069;51.568;4.656;2024-02-04T02:34:41;9.86;98.57
68257;DHT22;55069;51.568;4.656;2024-02-04T02:42:43;9.83;98.76
68257;DHT22;55069;51.568;4.656;2024-02-04T02:45:11;9.83;98.78
68257;DHT22;55069;51.568;4.656;2024-02-04T02:47:39;9.90;98.62
68257;DHT22;55069;51.568;4.656;2024-02-04T02:50:07;9.86;98.67
68257;DHT22;55069;51.568;4.656;2024-02-04T02:52:33;9.84;98.73
68257;DHT22;55069;51.568;4.656;2024-02-04T02:54:58;9.83;98.70
68257;DHT22;55069;51.568;4.656;2024-02-04T02:57:24;9.86;98.78
68257;DHT22;55069;51.568;4.656;2024-02-04T02:59:49;9.83;98.81
68257;DHT22;55069;51.568;4.656;2024-02-04T03:02:15;9.84;98.97
68257;DHT22;55069;51.568;4.656;2024-02-04T03:04:41;9.86;98.82
68257;DHT22;55069;51.568;4.656;2024-02-04T03:07:07;9.90;98.83
68257;DHT22;55069;51.568;4.656;2024-02-04T03:09:33;9.90;98.85
68257;DHT22;55069;51.568;4.656;2024-02-04T03:11:59;9.91;98.76
68257;DHT22;55069;51.568;4.656;2024-02-04T03:14:24;9.90;98.77
68257;DHT22;55069;51.568;4.656;2024-02-04T03:16:50;9.90;98.84
68257;DHT22;55069;51.568;4.656;2024-02-04T03:19:15;9.97;98.72
68257;DHT22;55069;51.568;4.656;2024-02-04T03:21:41;9.94;98.65
68257;DHT22;55069;51.568;4.656;2024-02-04T03:24:07;9.94;98.62
68257;DHT22;55069;51.568;4.656;2024-02-04T03:26:32;10.00;98.61
68257;DHT22;55069;51.568;4.656;2024-02-04T03:28:58;10.01;98.54
68257;DHT22;55069;51.568;4.656;2024-02-04T03:31:23;10.05;98.46
68257;DHT22;55069;51.568;4.656;2024-02-04T03:33:50;10.00;98.48
68257;DHT22;55069;51.568;4.656;2024-02-04T03:36:19;10.04;98.39
68257;DHT22;55069;51.568;4.656;2024-02-04T03:38:46;10.03;98.36
68257;DHT22;55069;51.568;4.656;2024-02-04T03:41:12;10.04;98.41
68257;DHT22;55069;51.568;4.656;2024-02-04T03:43:37;10.01;98.51
68257;DHT22;55069;51.568;4.656;2024-02-04T03:46:03;10.03;98.43
68257;DHT22;55069;51.568;4.656;2024-02-04T03:48:29;9.98;98.59
68257;DHT22;55069;51.568;4.656;2024-02-04T03:50:55;10.01;98.57
68257;DHT22;55069;51.568;4.656;2024-02-04T03:53:20;10.03;98.50
68257;DHT22;55069;51.568;4.656;2024-02-04T03:55:51;10.03;98.42
68257;DHT22;55069;51.568;4.656;2024-02-04T03:58:19;10.04;98.43
68257;DHT22;55069;51.568;4.656;2024-02-04T04:00:44;10.04;98.32
68257;DHT22;55069;51.568;4.656;2024-02-04T04:03:10;10.07;98.39
68257;DHT22;55069;51.568;4.656;2024-02-04T04:05:35;10.10;98.36
68257;DHT22;55069;51.568;4.656;2024-02-04T04:08:01;10.08;98.48
68257;DHT22;55069;51.568;4.656;2024-02-04T04:10:26;10.08;98.58
68257;DHT22;55069;51.568;4.656;2024-02-04T04:12:52;10.08;98.56
68257;DHT22;55069;51.568;4.656;2024-02-04T04:15:18;10.07;98.56
68257;DHT22;55069;51.568;4.656;2024-02-04T04:17:43;10.07;98.66
68257;DHT22;55069;51.568;4.656;2024-02-04T04:20:09;10.11;98.72
68257;DHT22;55069;51.568;4.656;2024-02-04T04:22:34;10.10;98.76
68257;DHT22;55069;51.568;4.656;2024-02-04T04:25:00;10.08;98.82
68257;DHT22;55069;51.568;4.656;2024-02-04T04:27:25;10.05;98.95
68257;DHT22;55069;51.568;4.656;2024-02-04T04:29:51;10.08;98.91
68257;DHT22;55069;51.568;4.656;2024-02-04T04:32:17;10.03;98.96
68257;DHT22;55069;51.568;4.656;2024-02-04T04:34:42;10.04;99.08
68257;DHT22;55069;51.568;4.656;2024-02-04T04:37:07;10.03;99.12
68257;DHT22;55069;51.568;4.656;2024-02-04T04:39:33;10.00;99.29
68257;DHT22;55069;51.568;4.656;2024-02-04T04:41:58;9.98;99.38
68257;DHT22;55069;51.568;4.656;2024-02-04T04:44:24;10.01;99.32
68257;DHT22;55069;51.568;4.656;2024-02-04T04:46:50;10.00;99.36
68257;DHT22;55069;51.568;4.656;2024-02-04T04:49:15;9.98;99.46
68257;DHT22;55069;51.568;4.656;2024-02-04T04:51:47;10.01;99.30
68257;DHT22;55069;51.568;4.656;2024-02-04T04:54:12;10.00;99.31
68257;DHT22;55069;51.568;4.656;2024-02-04T04:56:39;10.01;99.24
68257;DHT22;55069;51.568;4.656;2024-02-04T04:59:06;9.98;99.30
68257;DHT22;55069;51.568;4.656;2024-02-04T05:01:32;10.00;99.31
68257;DHT22;55069;51.568;4.656;2024-02-04T05:03:58;10.00;99.22
68257;DHT22;55069;51.568;4.656;2024-02-04T05:06:23;10.01;99.24
68257;DHT22;55069;51.568;4.656;2024-02-04T05:08:49;10.03;99.29
68257;DHT22;55069;51.568;4.656;2024-02-04T05:11:14;10.01;99.26
68257;DHT22;55069;51.568;4.656;2024-02-04T05:13:39;10.03;99.36
68257;DHT22;55069;51.568;4.656;2024-02-04T05:16:05;9.98;99.44
68257;DHT22;55069;51.568;4.656;2024-02-04T05:18:31;9.98;99.40
68257;DHT22;55069;51.568;4.656;2024-02-04T05:20:56;9.98;99.31
68257;DHT22;55069;51.568;4.656;2024-02-04T05:23:22;9.98;99.26
68257;DHT22;55069;51.568;4.656;2024-02-04T05:25:47;10.00;99.38
68257;DHT22;55069;51.568;4.656;2024-02-04T05:28:13;10.00;99.23
68257;DHT22;55069;51.568;4.656;2024-02-04T05:30:38;9.98;99.31
68257;DHT22;55069;51.568;4.656;2024-02-04T05:33:04;10.00;99.24
68257;DHT22;55069;51.568;4.656;2024-02-04T05:35:29;10.00;99.33
68257;DHT22;55069;51.568;4.656;2024-02-04T05:37:55;9.98;99.35
68257;DHT22;55069;51.568;4.656;2024-02-04T05:40:21;9.98;99.44
68257;DHT22;55069;51.568;4.656;2024-02-04T05:42:46;9.94;99.52
68257;DHT22;55069;51.568;4.656;2024-02-04T05:45:12;9.97;99.61
68257;DHT22;55069;51.568;4.656;2024-02-04T05:47:37;9.96;99.57
68257;DHT22;55069;51.568;4.656;2024-02-04T05:50:03;9.94;99.72
68257;DHT22;55069;51.568;4.656;2024-02-04T05:52:28;9.96;99.81
68257;DHT22;55069;51.568;4.656;2024-02-04T05:54:54;9.96;99.64
68257;DHT22;55069;51.568;4.656;2024-02-04T05:57:19;9.93;99.87
68257;DHT22;55069;51.568;4.656;2024-02-04T05:59:46;9.93;99.86
68257;DHT22;55069;51.568;4.656;2024-02-04T06:02:14;9.93;99.71
68257;DHT22;55069;51.568;4.656;2024-02-04T06:04:39;9.94;99.68
68257;DHT22;55069;51.568;4.656;2024-02-04T06:07:05;9.96;99.61
68257;DHT22;55069;51.568;4.656;2024-02-04T06:09:32;9.97;99.43
68257;DHT22;55069;51.568;4.656;2024-02-04T06:11:58;9.96;99.59
68257;DHT22;55069;51.568;4.656;2024-02-04T06:14:23;9.97;99.45
68257;DHT22;55069;51.568;4.656;2024-02-04T06:16:49;9.97;99.56
68257;DHT22;55069;51.568;4.656;2024-02-04T06:19:14;9.97;99.46
68257;DHT22;55069;51.568;4.656;2024-02-04T06:21:40;9.98;99.42
68257;DHT22;55069;51.568;4.656;2024-02-04T06:24:06;9.98;99.41
68257;DHT22;55069;51.568;4.656;2024-02-04T06:26:31;9.97;99.40
68257;DHT22;55069;51.568;4.656;2024-02-04T06:28:57;9.98;99.28
68257;DHT22;55069;51.568;4.656;2024-02-04T06:31:23;9.98;99.35
68257;DHT22;55069;51.568;4.656;2024-02-04T06:33:48;9.96;99.48
68257;DHT22;55069;51.568;4.656;2024-02-04T06:36:14;9.98;99.41
68257;DHT22;55069;51.568;4.656;2024-02-04T06:38:39;9.94;99.47
68257;DHT22;55069;51.568;4.656;2024-02-04T06:41:05;9.96;99.29
68257;DHT22;55069;51.568;4.656;2024-02-04T06:43:30;9.93;99.42
68257;DHT22;55069;51.568;4.656;2024-02-04T06:45:56;9.97;99.25
68257;DHT22;55069;51.568;4.656;2024-02-04T06:48:21;10.00;99.10
68257;DHT22;55069;51.568;4.656;2024-02-04T06:50:47;10.00;99.01
68257;DHT22;55069;51.568;4.656;2024-02-04T06:53:16;10.01;99.04
68257;DHT22;55069;51.568;4.656;2024-02-04T06:55:41;10.01;98.95
68257;DHT22;55069;51.568;4.656;2024-02-04T06:58:07;10.04;98.97
68257;DHT22;55069;51.568;4.656;2024-02-04T07:00:32;10.01;99.03
68257;DHT22;55069;51.568;4.656;2024-02-04T07:02:58;10.03;99.07
68257;DHT22;55069;51.568;4.656;2024-02-04T07:05:23;10.04;98.93
68257;DHT22;55069;51.568;4.656;2024-02-04T07:07:50;10.10;98.74
68257;DHT22;55069;51.568;4.656;2024-02-04T07:10:16;10.10;98.83
68257;DHT22;55069;51.568;4.656;2024-02-04T07:12:42;10.08;98.93
68257;DHT22;55069;51.568;4.656;2024-02-04T07:15:07;10.07;99.02
68257;DHT22;55069;51.568;4.656;2024-02-04T07:17:34;10.07;99.07
68257;DHT22;55069;51.568;4.656;2024-02-04T07:20:00;10.07;99.03
68257;DHT22;55069;51.568;4.656;2024-02-04T07:22:26;10.07;99.15
68257;DHT22;55069;51.568;4.656;2024-02-04T07:24:52;10.08;99.11
68257;DHT22;55069;51.568;4.656;2024-02-04T07:27:17;10.08;99.00
68257;DHT22;55069;51.568;4.656;2024-02-04T07:29:43;10.11;98.76
68257;DHT22;55069;51.568;4.656;2024-02-04T07:32:08;10.14;98.78
68257;DHT22;55069;51.568;4.656;2024-02-04T07:34:34;10.14;98.71
68257;DHT22;55069;51.568;4.656;2024-02-04T07:36:59;10.17;98.73
68257;DHT22;55069;51.568;4.656;2024-02-04T07:39:25;10.17;98.42
68257;DHT22;55069;51.568;4.656;2024-02-04T07:41:50;10.18;98.41
68257;DHT22;55069;51.568;4.656;2024-02-04T07:44:16;10.24;98.29
68257;DHT22;55069;51.568;4.656;2024-02-04T07:46:41;10.18;98.31
68257;DHT22;55069;51.568;4.656;2024-02-04T07:49:08;10.20;98.20
68257;DHT22;55069;51.568;4.656;2024-02-04T07:51:33;10.24;98.16
68257;DHT22;55069;51.568;4.656;2024-02-04T07:54:00;10.21;98.10
68257;DHT22;55069;51.568;4.656;2024-02-04T07:56:26;10.25;98.06
68257;DHT22;55069;51.568;4.656;2024-02-04T07:58:51;10.24;97.93
68257;DHT22;55069;51.568;4.656;2024-02-04T08:01:18;10.25;97.85
68257;DHT22;55069;51.568;4.656;2024-02-04T08:03:44;10.27;97.90
68257;DHT22;55069;51.568;4.656;2024-02-04T08:06:12;10.31;97.85
68257;DHT22;55069;51.568;4.656;2024-02-04T08:08:37;10.31;97.89
68257;DHT22;55069;51.568;4.656;2024-02-04T08:11:03;10.28;97.79
68257;DHT22;55069;51.568;4.656;2024-02-04T08:13:28;10.34;97.74
68257;DHT22;55069;51.568;4.656;2024-02-04T08:15:54;10.32;97.81
68257;DHT22;55069;51.568;4.656;2024-02-04T08:18:19;10.34;97.76
68257;DHT22;55069;51.568;4.656;2024-02-04T08:20:45;10.32;97.72
68257;DHT22;55069;51.568;4.656;2024-02-04T08:23:10;10.34;97.69
68257;DHT22;55069;51.568;4.656;2024-02-04T08:25:36;10.37;97.51
68257;DHT22;55069;51.568;4.656;2024-02-04T08:28:02;10.38;97.49
68257;DHT22;55069;51.568;4.656;2024-02-04T08:30:27;10.40;97.68
68257;DHT22;55069;51.568;4.656;2024-02-04T08:32:53;10.41;97.44
68257;DHT22;55069;51.568;4.656;2024-02-04T08:35:18;10.42;97.08
68257;DHT22;55069;51.568;4.656;2024-02-04T08:37:44;10.42;97.28
68257;DHT22;55069;51.568;4.656;2024-02-04T08:40:10;10.45;97.23
68257;DHT22;55069;51.568;4.656;2024-02-04T08:42:36;10.45;97.13
68257;DHT22;55069;51.568;4.656;2024-02-04T08:45:02;10.44;97.15
68257;DHT22;55069;51.568;4.656;2024-02-04T08:47:27;10.46;97.12
68257;DHT22;55069;51.568;4.656;2024-02-04T08:49:53;10.49;96.98
68257;DHT22;55069;51.568;4.656;2024-02-04T08:52:18;10.49;97.06
68257;DHT22;55069;51.568;4.656;2024-02-04T08:54:44;10.52;96.60
68257;DHT22;55069;51.568;4.656;2024-02-04T08:57:09;10.55;96.71
68257;DHT22;55069;51.568;4.656;2024-02-04T08:59:35;10.55;96.56
68257;DHT22;55069;51.568;4.656;2024-02-04T09:02:00;10.56;96.86
68257;DHT22;55069;51.568;4.656;2024-02-04T09:04:26;10.55;96.78
68257;DHT22;55069;51.568;4.656;2024-02-04T09:06:51;10.55;96.69
68257;DHT22;55069;51.568;4.656;2024-02-04T09:09:17;10.58;96.66
68257;DHT22;55069;51.568;4.656;2024-02-04T09:11:42;10.58;96.76
68257;DHT22;55069;51.568;4.656;2024-02-04T09:14:08;10.59;96.62
68257;DHT22;55069;51.568;4.656;2024-02-04T09:16:33;10.62;96.56
68257;DHT22;55069;51.568;4.656;2024-02-04T09:18:59;10.63;96.73
68257;DHT22;55069;51.568;4.656;2024-02-04T09:21:24;10.62;96.80
68257;DHT22;55069;51.568;4.656;2024-02-04T09:23:50;10.63;96.89
68257;DHT22;55069;51.568;4.656;2024-02-04T09:26:15;10.62;96.71
68257;DHT22;55069;51.568;4.656;2024-02-04T09:28:41;10.59;96.72
68257;DHT22;55069;51.568;4.656;2024-02-04T09:31:09;10.59;96.78
68257;DHT22;55069;51.568;4.656;2024-02-04T09:33:34;10.61;96.79
68257;DHT22;55069;51.568;4.656;2024-02-04T09:36:01;10.59;96.62
68257;DHT22;55069;51.568;4.656;2024-02-04T09:38:26;10.63;96.73
68257;DHT22;55069;51.568;4.656;2024-02-04T09:40:51;10.69;96.68
68257;DHT22;55069;51.568;4.656;2024-02-04T09:43:17;10.65;96.77
68257;DHT22;55069;51.568;4.656;2024-02-04T09:45:44;10.65;96.68
68257;DHT22;55069;51.568;4.656;2024-02-04T09:48:10;10.62;96.59
68257;DHT22;55069;51.568;4.656;2024-02-04T09:50:37;10.63;96.68
68257;DHT22;55069;51.568;4.656;2024-02-04T09:53:03;10.65;96.60
68257;DHT22;55069;51.568;4.656;2024-02-04T09:55:33;10.66;96.54
68257;DHT22;55069;51.568;4.656;2024-02-04T09:57:58;10.69;96.54
68257;DHT22;55069;51.568;4.656;2024-02-04T10:00:25;10.63;96.53
68257;DHT22;55069;51.568;4.656;2024-02-04T10:02:53;10.66;96.69
68257;DHT22;55069;51.568;4.656;2024-02-04T10:05:20;10.65;96.43
68257;DHT22;55069;51.568;4.656;2024-02-04T10:07:46;10.72;96.33
68257;DHT22;55069;51.568;4.656;2024-02-04T10:10:12;10.72;96.34
68257;DHT22;55069;51.568;4.656;2024-02-04T10:12:37;10.69;96.53
68257;DHT22;55069;51.568;4.656;2024-02-04T10:15:07;10.75;96.28
68257;DHT22;55069;51.568;4.656;2024-02-04T10:17:32;10.75;96.37
68257;DHT22;55069;51.568;4.656;2024-02-04T10:19:58;10.80;96.13
68257;DHT22;55069;51.568;4.656;2024-02-04T10:22:26;10.79;96.17
68257;DHT22;55069;51.568;4.656;2024-02-04T10:24:52;10.82;96.33
68257;DHT22;55069;51.568;4.656;2024-02-04T10:27:17;10.86;96.13
68257;DHT22;55069;51.568;4.656;2024-02-04T10:29:43;10.89;96.17
68257;DHT22;55069;51.568;4.656;2024-02-04T10:32:08;10.88;95.94
68257;DHT22;55069;51.568;4.656;2024-02-04T10:34:37;10.90;95.95
68257;DHT22;55069;51.568;4.656;2024-02-04T10:37:03;11.01;96.04
68257;DHT22;55069;51.568;4.656;2024-02-04T10:39:29;10.99;95.72
68257;DHT22;55069;51.568;4.656;2024-02-04T10:41:55;11.04;95.74
68257;DHT22;55069;51.568;4.656;2024-02-04T10:44:22;11.04;95.81
68257;DHT22;55069;51.568;4.656;2024-02-04T10:46:50;11.09;95.75
68257;DHT22;55069;51.568;4.656;2024-02-04T10:49:18;11.11;95.66
68257;DHT22;55069;51.568;4.656;2024-02-04T10:51:46;11.10;95.59
68257;DHT22;55069;51.568;4.656;2024-02-04T10:54:14;11.13;95.51
68257;DHT22;55069;51.568;4.656;2024-02-04T10:56:53;11.17;95.45
68257;DHT22;55069;51.568;4.656;2024-02-04T10:59:21;11.21;95.49
68257;DHT22;55069;51.568;4.656;2024-02-04T11:01:47;11.21;95.24
68257;DHT22;55069;51.568;4.656;2024-02-04T11:04:16;11.26;95.36
68257;DHT22;55069;51.568;4.656;2024-02-04T11:06:42;11.30;95.28
68257;DHT22;55069;51.568;4.656;2024-02-04T11:09:09;11.28;94.93
68257;DHT22;55069;51.568;4.656;2024-02-04T11:11:39;11.28;95.14
68257;DHT22;55069;51.568;4.656;2024-02-04T11:14:09;11.31;95.28
68257;DHT22;55069;51.568;4.656;2024-02-04T11:22:21;11.42;95.12
68257;DHT22;55069;51.568;4.656;2024-02-04T11:27:38;11.45;94.92
68257;DHT22;55069;51.568;4.656;2024-02-04T11:30:05;11.44;94.75
68257;DHT22;55069;51.568;4.656;2024-02-04T11:32:30;11.47;94.63
68257;DHT22;55069;51.568;4.656;2024-02-04T11:34:56;11.48;94.98
68257;DHT22;55069;51.568;4.656;2024-02-04T11:37:26;11.45;94.64
68257;DHT22;55069;51.568;4.656;2024-02-04T11:39:53;11.51;94.72
68257;DHT22;55069;51.568;4.656;2024-02-04T11:42:20;11.52;94.56
68257;DHT22;55069;51.568;4.656;2024-02-04T11:44:46;11.57;94.71
68257;DHT22;55069;51.568;4.656;2024-02-04T11:47:25;11.61;94.79
68257;DHT22;55069;51.568;4.656;2024-02-04T11:49:58;11.66;94.51
68257;DHT22;55069;51.568;4.656;2024-02-04T11:52:26;11.66;94.39
68257;DHT22;55069;51.568;4.656;2024-02-04T11:54:52;11.68;94.39
68257;DHT22;55069;51.568;4.656;2024-02-04T11:57:18;11.69;94.23
68257;DHT22;55069;51.568;4.656;2024-02-04T11:59:45;11.74;94.36
68257;DHT22;55069;51.568;4.656;2024-02-04T12:02:11;11.75;94.27
68257;DHT22;55069;51.568;4.656;2024-02-04T12:04:37;11.81;94.17
68257;DHT22;55069;51.568;4.656;2024-02-04T12:07:05;11.90;94.19
68257;DHT22;55069;51.568;4.656;2024-02-04T12:09:31;11.90;93.86
68257;DHT22;55069;51.568;4.656;2024-02-04T12:11:57;12.07;93.87
68257;DHT22;55069;51.568;4.656;2024-02-04T12:14:22;12.16;93.14
68257;DHT22;55069;51.568;4.656;2024-02-04T12:16:48;12.23;92.81
68257;DHT22;55069;51.568;4.656;2024-02-04T12:19:14;12.44;92.57
68257;DHT22;55069;51.568;4.656;2024-02-04T12:21:40;12.51;92.35
68257;DHT22;55069;51.568;4.656;2024-02-04T12:24:06;12.62;92.19
68257;DHT22;55069;51.568;4.656;2024-02-04T12:26:32;12.51;92.28
68257;DHT22;55069;51.568;4.656;2024-02-04T12:28:58;12.71;92.87
68257;DHT22;55069;51.568;4.656;2024-02-04T12:31:27;12.79;92.06
68257;DHT22;55069;51.568;4.656;2024-02-04T12:33:58;12.62;91.99
68257;DHT22;55069;51.568;4.656;2024-02-04T12:36:29;12.47;92.07
68257;DHT22;55069;51.568;4.656;2024-02-04T12:38:59;12.47;92.14
68257;DHT22;55069;51.568;4.656;2024-02-04T12:41:26;12.47;91.85
68257;DHT22;55069;51.568;4.656;2024-02-04T12:43:54;12.47;91.69
68257;DHT22;55069;51.568;4.656;2024-02-04T12:46:20;12.55;91.60
68257;DHT22;55069;51.568;4.656;2024-02-04T12:48:51;12.65;91.05
68257;DHT22;55069;51.568;4.656;2024-02-04T12:51:28;12.69;90.92
68257;DHT22;55069;51.568;4.656;2024-02-04T12:54:10;12.77;90.59
68257;DHT22;55069;51.568;4.656;2024-02-04T12:56:52;12.75;89.66
68257;DHT22;55069;51.568;4.656;2024-02-04T12:59:32;12.74;89.82
68257;DHT22;55069;51.568;4.656;2024-02-04T13:02:07;12.75;90.22
68257;DHT22;55069;51.568;4.656;2024-02-04T13:04:37;12.89;89.99
68257;DHT22;55069;51.568;4.656;2024-02-04T13:07:13;12.93;90.35
68257;DHT22;55069;51.568;4.656;2024-02-04T13:09:40;12.95;89.80
68257;DHT22;55069;51.568;4.656;2024-02-04T13:12:06;12.84;89.80
68257;DHT22;55069;51.568;4.656;2024-02-04T13:14:36;12.84;90.40
68257;DHT22;55069;51.568;4.656;2024-02-04T13:17:02;12.85;90.50
68257;DHT22;55069;51.568;4.656;2024-02-04T13:19:38;12.82;89.85
68257;DHT22;55069;51.568;4.656;2024-02-04T13:22:04;12.79;89.93
68257;DHT22;55069;51.568;4.656;2024-02-04T13:24:31;12.88;89.57
68257;DHT22;55069;51.568;4.656;2024-02-04T13:26:57;12.93;89.30
68257;DHT22;55069;51.568;4.656;2024-02-04T13:29:24;12.85;89.09
68257;DHT22;55069;51.568;4.656;2024-02-04T13:31:49;12.93;89.08
68257;DHT22;55069;51.568;4.656;2024-02-04T13:34:17;12.92;89.72
68257;DHT22;55069;51.568;4.656;2024-02-04T13:36:43;12.85;89.19
68257;DHT22;55069;51.568;4.656;2024-02-04T13:39:09;12.88;89.34
68257;DHT22;55069;51.568;4.656;2024-02-04T13:41:35;12.89;89.67
68257;DHT22;55069;51.568;4.656;2024-02-04T13:44:01;12.91;89.12
68257;DHT22;55069;51.568;4.656;2024-02-04T13:46:27;12.92;88.86
68257;DHT22;55069;51.568;4.656;2024-02-04T13:48:52;12.85;89.43
68257;DHT22;55069;51.568;4.656;2024-02-04T13:51:18;12.89;89.21
68257;DHT22;55069;51.568;4.656;2024-02-04T13:53:43;12.92;88.82
68257;DHT22;55069;51.568;4.656;2024-02-04T13:56:09;12.93;89.04
68257;DHT22;55069;51.568;4.656;2024-02-04T13:58:35;12.98;88.60
68257;DHT22;55069;51.568;4.656;2024-02-04T14:01:01;12.96;88.48
68257;DHT22;55069;51.568;4.656;2024-02-04T14:03:26;13.00;88.98
68257;DHT22;55069;51.568;4.656;2024-02-04T14:05:52;12.96;89.22
68257;DHT22;55069;51.568;4.656;2024-02-04T14:08:17;12.98;89.87
68257;DHT22;55069;51.568;4.656;2024-02-04T14:10:43;13.00;89.96
68257;DHT22;55069;51.568;4.656;2024-02-04T14:13:08;13.00;89.67
68257;DHT22;55069;51.568;4.656;2024-02-04T14:15:36;12.91;89.24
68257;DHT22;55069;51.568;4.656;2024-02-04T14:18:02;12.92;89.65
68257;DHT22;55069;51.568;4.656;2024-02-04T14:20:27;12.93;90.01
68257;DHT22;55069;51.568;4.656;2024-02-04T14:22:53;12.99;89.94
68257;DHT22;55069;51.568;4.656;2024-02-04T14:25:18;12.91;89.82
68257;DHT22;55069;51.568;4.656;2024-02-04T14:27:44;12.89;89.88
68257;DHT22;55069;51.568;4.656;2024-02-04T14:30:10;12.87;90.13
68257;DHT22;55069;51.568;4.656;2024-02-04T14:32:36;12.85;90.19
68257;DHT22;55069;51.568;4.656;2024-02-04T14:35:01;12.77;90.41
68257;DHT22;55069;51.568;4.656;2024-02-04T14:37:30;12.74;90.76
68257;DHT22;55069;51.568;4.656;2024-02-04T14:39:58;12.64;90.63
68257;DHT22;55069;51.568;4.656;2024-02-04T14:42:25;12.67;91.11
68257;DHT22;55069;51.568;4.656;2024-02-04T14:44:52;12.62;91.10
68257;DHT22;55069;51.568;4.656;2024-02-04T14:47:18;12.54;91.12
68257;DHT22;55069;51.568;4.656;2024-02-04T14:49:43;12.51;91.00
68257;DHT22;55069;51.568;4.656;2024-02-04T14:52:09;12.53;90.93
68257;DHT22;55069;51.568;4.656;2024-02-04T14:54:34;12.47;91.11
68257;DHT22;55069;51.568;4.656;2024-02-04T14:57:00;12.48;91.34
68257;DHT22;55069;51.568;4.656;2024-02-04T14:59:25;12.45;91.08
68257;DHT22;55069;51.568;4.656;2024-02-04T15:01:51;12.44;91.35
68257;DHT22;55069;51.568;4.656;2024-02-04T15:04:16;12.44;91.07
68257;DHT22;55069;51.568;4.656;2024-02-04T15:06:42;12.45;91.22
68257;DHT22;55069;51.568;4.656;2024-02-04T15:09:08;12.50;90.95
68257;DHT22;55069;51.568;4.656;2024-02-04T15:11:36;12.47;91.01
68257;DHT22;55069;51.568;4.656;2024-02-04T15:14:02;12.45;90.83
68257;DHT22;55069;51.568;4.656;2024-02-04T15:16:28;12.50;91.13
68257;DHT22;55069;51.568;4.656;2024-02-04T15:18:53;12.44;90.93
68257;DHT22;55069;51.568;4.656;2024-02-04T15:21:19;12.43;91.10
68257;DHT22;55069;51.568;4.656;2024-02-04T15:23:45;12.41;91.31
68257;DHT22;55069;51.568;4.656;2024-02-04T15:26:11;12.38;91.04
68257;DHT22;55069;51.568;4.656;2024-02-04T15:28:38;12.43;90.96
68257;DHT22;55069;51.568;4.656;2024-02-04T15:31:05;12.38;91.32
68257;DHT22;55069;51.568;4.656;2024-02-04T15:33:31;12.37;91.10
68257;DHT22;55069;51.568;4.656;2024-02-04T15:35:56;12.41;91.31
68257;DHT22;55069;51.568;4.656;2024-02-04T15:38:22;12.44;91.48
68257;DHT22;55069;51.568;4.656;2024-02-04T15:40:48;12.32;91.22